createdAt,value
2017-06-09T00:01:42.443Z,60.40
2017-06-09T00:04:08.886Z,60.40
2017-06-09T00:06:35.315Z,61.00
2017-06-09T00:09:02.602Z,61.50
2017-06-09T00:11:29.016Z,61.40
2017-06-09T00:13:55.444Z,61.30
2017-06-09T00:16:21.896Z,61.40
2017-06-09T00:18:48.348Z,61.90
2017-06-09T00:21:14.886Z,61.60
2017-06-09T00:23:41.328Z,62.30
2017-06-09T00:26:08.842Z,62.10
2017-06-09T00:28:35.271Z,61.90
2017-06-09T00:31:03.138Z,62.50
2017-06-09T00:33:29.558Z,62.50
2017-06-09T00:35:55.977Z,62.40
2017-06-09T00:38:22.402Z,63.00
2017-06-09T00:40:50.111Z,63.20
2017-06-09T00:43:16.670Z,63.10
2017-06-09T00:45:43.101Z,63.00
2017-06-09T00:48:10.033Z,63.20
2017-06-09T00:50:36.469Z,63.50
2017-06-09T00:53:02.904Z,63.90
2017-06-09T00:55:29.323Z,64.20
2017-06-09T00:57:55.761Z,63.90
2017-06-09T01:00:22.235Z,63.50
2017-06-09T01:02:48.786Z,63.70
2017-06-09T01:05:15.227Z,63.90
2017-06-09T01:07:41.745Z,64.30
2017-06-09T01:10:08.665Z,64.60
2017-06-09T01:12:35.108Z,64.40
2017-06-09T01:15:01.540Z,64.60
2017-06-09T01:17:28.080Z,64.70
2017-06-09T01:19:54.509Z,64.60
2017-06-09T01:22:21.408Z,64.30
2017-06-09T01:24:47.815Z,63.80
2017-06-09T01:27:14.255Z,63.20
2017-06-09T01:29:40.717Z,63.50
2017-06-09T01:32:07.238Z,63.80
2017-06-09T01:34:33.781Z,62.70
2017-06-09T01:37:00.258Z,62.80
2017-06-09T01:39:26.849Z,62.60
2017-06-09T01:41:53.289Z,63.10
2017-06-09T01:44:19.765Z,63.00
2017-06-09T01:46:46.205Z,63.40
2017-06-09T01:49:12.714Z,63.20
2017-06-09T01:51:40.187Z,64.30
2017-06-09T01:54:07.947Z,64.50
2017-06-09T01:56:34.446Z,64.40
2017-06-09T01:59:00.881Z,64.40
2017-06-09T02:01:28.086Z,65.20
2017-06-09T02:03:54.518Z,65.10
2017-06-09T02:06:21.682Z,64.90
2017-06-09T02:08:48.974Z,65.10
2017-06-09T02:11:15.444Z,65.00
2017-06-09T02:13:41.876Z,64.90
2017-06-09T02:16:09.049Z,65.90
2017-06-09T02:18:36.212Z,66.00
2017-06-09T02:21:03.380Z,65.80
2017-06-09T02:23:30.539Z,65.60
2017-06-09T02:25:57.029Z,65.50
2017-06-09T02:28:23.467Z,65.50
2017-06-09T02:30:50.637Z,65.30
2017-06-09T02:33:17.797Z,65.40
2017-06-09T02:35:44.250Z,65.30
2017-06-09T02:38:10.701Z,65.50
2017-06-09T02:40:37.134Z,65.50
2017-06-09T02:43:03.581Z,65.70
2017-06-09T02:45:31.044Z,65.70
2017-06-09T02:47:57.613Z,65.80
2017-06-09T02:50:24.253Z,65.70
2017-06-09T02:52:50.695Z,66.10
2017-06-09T02:55:17.861Z,66.40
2017-06-09T02:57:45.041Z,66.30
2017-06-09T03:00:12.550Z,66.30
2017-06-09T03:02:38.998Z,66.20
2017-06-09T03:05:05.554Z,66.30
2017-06-09T03:07:32.014Z,66.40
2017-06-09T03:09:58.558Z,66.40
2017-06-09T03:12:25.120Z,66.50
2017-06-09T03:14:51.880Z,66.50
2017-06-09T03:17:18.303Z,66.60
2017-06-09T03:19:44.755Z,66.60
2017-06-09T03:22:11.665Z,66.40
2017-06-09T03:24:38.098Z,66.20
2017-06-09T03:27:05.387Z,66.10
2017-06-09T03:29:31.813Z,65.90
2017-06-09T03:32:04.281Z,66.00
2017-06-09T03:34:30.737Z,65.70
2017-06-09T03:36:57.189Z,65.60
2017-06-09T03:39:23.637Z,65.00
2017-06-09T03:41:50.623Z,65.00
2017-06-09T03:44:17.068Z,65.10
2017-06-09T03:46:43.591Z,65.10
2017-06-09T03:49:10.456Z,64.80
2017-06-09T03:51:36.891Z,63.70
2017-06-09T03:54:04.110Z,64.00
2017-06-09T03:56:30.637Z,64.00
2017-06-09T03:58:57.098Z,62.60
2017-06-09T04:01:23.530Z,61.90
2017-06-09T04:03:50.712Z,61.60
2017-06-09T04:06:17.888Z,60.30
2017-06-09T04:08:44.332Z,60.30
2017-06-09T04:11:11.647Z,56.30
2017-06-09T04:13:38.178Z,56.10
2017-06-09T04:16:04.612Z,54.10
2017-06-09T04:18:31.408Z,51.80
2017-06-09T04:20:58.383Z,49.20
2017-06-09T04:23:24.849Z,47.10
2017-06-09T04:25:51.288Z,45.90
2017-06-09T04:28:17.959Z,44.90
2017-06-09T04:30:44.699Z,43.80
2017-06-09T04:33:11.409Z,43.00
2017-06-09T04:35:37.919Z,41.70
2017-06-09T04:38:04.609Z,40.60
2017-06-09T04:40:31.032Z,40.00
2017-06-09T04:42:57.512Z,38.60
2017-06-09T04:45:23.952Z,37.90
2017-06-09T04:47:50.652Z,37.20
2017-06-09T04:50:17.120Z,36.50
2017-06-09T04:52:43.542Z,35.70
2017-06-09T04:55:09.986Z,34.40
2017-06-09T04:57:36.535Z,34.00
2017-06-09T05:00:03.014Z,33.50
2017-06-09T05:02:29.785Z,32.20
2017-06-09T05:04:56.304Z,30.90
2017-06-09T05:07:22.785Z,30.10
2017-06-09T05:09:49.419Z,29.70
2017-06-09T05:12:15.855Z,29.20
2017-06-09T05:14:42.341Z,28.10
2017-06-09T05:17:08.812Z,26.60
2017-06-09T05:19:35.265Z,26.00
2017-06-09T05:22:01.812Z,25.90
2017-06-09T05:24:29.119Z,26.10
2017-06-09T05:26:55.626Z,26.40
2017-06-09T05:29:38.073Z,26.80
2017-06-09T05:32:04.573Z,27.10
2017-06-09T05:34:31.048Z,26.80
2017-06-09T05:36:57.509Z,26.90
2017-06-09T05:39:24.716Z,27.40
2017-06-09T05:41:51.159Z,26.90
2017-06-09T05:44:17.588Z,26.40
2017-06-09T05:46:44.038Z,26.10
2017-06-09T05:49:10.629Z,26.00
2017-06-09T05:51:37.090Z,25.70
2017-06-09T05:54:03.555Z,25.00
2017-06-09T05:56:29.982Z,24.40
2017-06-09T05:58:56.861Z,23.70
2017-06-09T06:01:23.301Z,23.80
2017-06-09T06:03:49.975Z,23.90
2017-06-09T06:06:16.451Z,23.00
2017-06-09T06:08:42.989Z,22.40
2017-06-09T06:11:09.469Z,21.60
2017-06-09T06:13:36.004Z,21.80
2017-06-09T06:16:02.415Z,21.50
2017-06-09T06:18:28.845Z,21.50
2017-06-09T06:20:55.312Z,21.80
2017-06-09T06:23:21.757Z,21.30
2017-06-09T06:25:48.175Z,20.90
2017-06-09T06:28:14.981Z,20.80
2017-06-09T06:30:41.957Z,20.40
2017-06-09T06:33:08.475Z,21.30
2017-06-09T06:35:34.932Z,22.40
2017-06-09T06:38:01.351Z,23.30
2017-06-09T06:40:27.830Z,24.20
2017-06-09T06:42:54.991Z,25.30
2017-06-09T06:45:22.416Z,25.90
2017-06-09T06:47:48.890Z,25.90
2017-06-09T06:50:15.441Z,26.40
2017-06-09T06:52:41.878Z,26.80
2017-06-09T06:55:08.417Z,27.20
2017-06-09T06:57:34.856Z,27.10
2017-06-09T07:00:01.328Z,26.70
2017-06-09T07:02:28.018Z,26.10
2017-06-09T07:04:54.958Z,25.50
2017-06-09T07:07:21.396Z,24.40
2017-06-09T07:09:47.969Z,23.80
2017-06-09T07:12:14.868Z,23.70
2017-06-09T07:14:41.295Z,23.10
2017-06-09T07:17:07.787Z,23.80
2017-06-09T07:19:34.239Z,23.70
2017-06-09T07:22:00.681Z,23.20
2017-06-09T07:24:27.095Z,23.20
2017-06-09T07:26:54.277Z,23.40
2017-06-09T07:29:20.752Z,23.20
2017-06-09T07:31:47.357Z,23.40
2017-06-09T07:34:14.052Z,23.00
2017-06-09T07:36:40.531Z,23.00
2017-06-09T07:39:06.940Z,22.60
2017-06-09T07:41:33.452Z,22.70
2017-06-09T07:44:00.244Z,22.50
2017-06-09T07:46:26.717Z,21.70
2017-06-09T07:48:53.956Z,21.50
2017-06-09T07:51:20.414Z,21.40
2017-06-09T07:53:47.177Z,21.80
2017-06-09T07:56:13.642Z,21.10
2017-06-09T07:58:41.454Z,21.10
2017-06-09T08:01:08.681Z,20.30
2017-06-09T08:03:35.543Z,20.20
2017-06-09T08:06:01.968Z,20.40
2017-06-09T08:08:28.427Z,20.80
2017-06-09T08:10:55.583Z,21.00
2017-06-09T08:13:22.305Z,21.00
2017-06-09T08:15:48.763Z,20.80
2017-06-09T08:18:15.615Z,20.60
2017-06-09T08:20:42.034Z,21.10
2017-06-09T08:23:09.229Z,22.10
2017-06-09T08:25:35.657Z,22.10
2017-06-09T08:28:02.374Z,23.30
2017-06-09T08:30:28.817Z,23.90
2017-06-09T08:32:55.228Z,24.50
2017-06-09T08:35:21.709Z,24.90
2017-06-09T08:37:48.168Z,25.30
2017-06-09T08:40:14.676Z,25.50
2017-06-09T08:45:34.266Z,26.30
2017-06-09T08:48:00.890Z,27.00
2017-06-09T08:50:27.546Z,27.40
2017-06-09T08:52:54.025Z,27.40
2017-06-09T08:55:20.433Z,27.40
2017-06-09T08:57:46.902Z,27.80
2017-06-09T09:00:13.476Z,28.10
2017-06-09T09:02:40.689Z,28.20
2017-06-09T09:05:08.883Z,28.10
2017-06-09T09:07:35.467Z,28.00
2017-06-09T09:10:01.955Z,28.30
2017-06-09T09:12:28.414Z,28.70
2017-06-09T09:14:54.968Z,27.90
2017-06-09T09:17:21.529Z,27.70
2017-06-09T09:19:47.995Z,27.60
2017-06-09T09:22:14.509Z,28.70
2017-06-09T09:24:40.948Z,28.20
2017-06-09T09:27:07.385Z,28.00
2017-06-09T09:29:33.812Z,28.10
2017-06-09T09:32:00.315Z,28.40
2017-06-09T09:34:27.528Z,28.80
2017-06-09T09:36:54.426Z,28.60
2017-06-09T09:39:20.860Z,27.40
2017-06-09T09:41:47.338Z,27.70
2017-06-09T09:44:14.113Z,27.20
2017-06-09T09:46:40.549Z,26.70
2017-06-09T09:49:06.983Z,26.10
2017-06-09T09:51:34.141Z,26.90
2017-06-09T09:54:01.139Z,26.80
2017-06-09T09:56:27.797Z,26.20
2017-06-09T09:58:54.294Z,25.70
2017-06-09T10:01:20.749Z,26.10
2017-06-09T10:03:47.210Z,25.80
2017-06-09T10:06:30.715Z,26.20
2017-06-09T10:08:57.500Z,26.10
2017-06-09T10:11:23.928Z,27.30
2017-06-09T10:13:50.610Z,27.70
2017-06-09T10:16:17.134Z,27.00
2017-06-09T10:18:43.659Z,27.70
2017-06-09T10:21:10.862Z,27.40
2017-06-09T10:23:38.069Z,28.00
2017-06-09T10:26:04.527Z,27.90
2017-06-09T10:28:30.967Z,27.40
2017-06-09T10:30:57.814Z,27.90
2017-06-09T10:33:24.316Z,28.70
2017-06-09T10:35:50.831Z,28.40
2017-06-09T10:38:17.489Z,28.10
2017-06-09T10:40:44.047Z,28.40
2017-06-09T10:43:10.670Z,28.10
2017-06-09T10:45:37.160Z,28.40
2017-06-09T10:48:03.609Z,29.30
2017-06-09T10:50:30.485Z,29.60
2017-06-09T10:52:57.792Z,29.70
2017-06-09T10:55:24.317Z,29.70
2017-06-09T10:57:50.755Z,29.90
2017-06-09T11:00:17.235Z,30.50
2017-06-09T11:02:43.705Z,30.90
2017-06-09T11:05:10.178Z,30.90
2017-06-09T11:07:36.739Z,30.70
2017-06-09T11:10:03.291Z,30.80
2017-06-09T11:12:30.046Z,30.50
2017-06-09T11:14:56.510Z,30.50
2017-06-09T11:17:22.976Z,30.90
2017-06-09T11:19:49.455Z,30.40
2017-06-09T11:22:15.924Z,30.80
2017-06-09T11:24:42.751Z,31.20
2017-06-09T11:27:10.327Z,32.30
2017-06-09T11:29:36.929Z,32.30
2017-06-09T11:32:03.500Z,32.10
2017-06-09T11:34:30.717Z,31.40
2017-06-09T11:36:57.897Z,31.40
2017-06-09T11:39:24.412Z,31.50
2017-06-09T11:41:51.569Z,31.00
2017-06-09T11:44:18.205Z,30.20
2017-06-09T11:46:44.677Z,30.30
2017-06-09T11:49:11.268Z,31.00
2017-06-09T11:51:38.046Z,31.40
2017-06-09T11:54:04.559Z,32.80
2017-06-09T11:56:31.855Z,31.30
2017-06-09T11:58:58.408Z,31.20
2017-06-09T12:01:25.306Z,30.30
2017-06-09T12:03:52.144Z,31.20
2017-06-09T12:06:19.057Z,31.30
2017-06-09T12:08:46.330Z,31.30
2017-06-09T12:11:13.418Z,31.30
2017-06-09T12:13:39.864Z,30.10
2017-06-09T12:16:07.114Z,29.30
2017-06-09T12:18:33.544Z,29.30
2017-06-09T12:20:59.993Z,30.00
2017-06-09T12:23:26.432Z,30.40
2017-06-09T12:25:53.730Z,29.80
2017-06-09T12:28:20.902Z,29.80
2017-06-09T12:30:47.458Z,30.50
2017-06-09T12:33:13.890Z,29.80
2017-06-09T12:35:40.338Z,30.10
2017-06-09T12:38:07.236Z,31.00
2017-06-09T12:40:33.745Z,31.60
2017-06-09T12:43:01.069Z,30.00
2017-06-09T12:45:27.535Z,30.00
2017-06-09T12:47:54.009Z,30.30
2017-06-09T12:50:20.514Z,30.40
2017-06-09T12:52:46.970Z,30.30
2017-06-09T12:55:14.072Z,30.40
2017-06-09T12:57:40.702Z,30.00
2017-06-09T13:00:07.406Z,29.80
2017-06-09T13:02:33.822Z,30.00
2017-06-09T13:05:00.514Z,30.40
2017-06-09T13:07:27.085Z,29.10
2017-06-09T13:09:53.620Z,29.10
2017-06-09T13:12:20.037Z,29.30
2017-06-09T13:14:46.764Z,29.30
2017-06-09T13:17:13.224Z,29.30
2017-06-09T13:19:39.751Z,29.90
2017-06-09T13:22:06.548Z,29.70
2017-06-09T13:24:32.995Z,30.00
2017-06-09T13:26:59.634Z,29.70
2017-06-09T13:29:26.097Z,29.30
2017-06-09T13:31:52.597Z,29.40
2017-06-09T13:34:19.049Z,29.20
2017-06-09T13:36:45.533Z,29.60
2017-06-09T13:39:12.017Z,29.90
2017-06-09T13:41:38.694Z,29.30
2017-06-09T13:44:05.335Z,29.70
2017-06-09T13:46:31.755Z,29.00
2017-06-09T13:48:59.064Z,29.10
2017-06-09T13:51:25.524Z,29.10
2017-06-09T13:54:06.869Z,30.00
2017-06-09T13:56:33.298Z,29.50
2017-06-09T13:58:59.712Z,29.70
2017-06-09T14:01:26.991Z,29.30
2017-06-09T14:03:53.756Z,29.30
2017-06-09T14:06:20.252Z,28.60
2017-06-09T14:08:46.747Z,28.70
2017-06-09T14:11:13.327Z,28.40
2017-06-09T14:13:39.792Z,28.10
2017-06-09T14:16:06.300Z,28.10
2017-06-09T14:18:33.495Z,28.40
2017-06-09T14:21:00.790Z,29.00
2017-06-09T14:23:27.381Z,29.00
2017-06-09T14:25:53.815Z,29.00
2017-06-09T14:28:20.361Z,29.10
2017-06-09T14:30:46.821Z,28.60
2017-06-09T14:33:13.297Z,28.90
2017-06-09T14:35:40.240Z,29.00
2017-06-09T14:38:21.968Z,29.40
2017-06-09T14:40:48.436Z,29.30
2017-06-09T14:43:14.952Z,28.60
2017-06-09T14:45:41.489Z,28.40
2017-06-09T14:48:08.764Z,28.90
2017-06-09T14:50:35.274Z,28.90
2017-06-09T14:53:02.643Z,28.40
2017-06-09T14:55:29.844Z,28.40
2017-06-09T14:57:56.431Z,28.40
2017-06-09T15:00:22.946Z,28.50
2017-06-09T15:02:49.526Z,28.20
2017-06-09T15:05:17.096Z,28.10
2017-06-09T15:07:44.362Z,28.60
2017-06-09T15:10:10.855Z,28.50
2017-06-09T15:12:37.515Z,28.80
2017-06-09T15:15:03.989Z,28.60
2017-06-09T15:17:30.853Z,28.40
2017-06-09T15:19:58.015Z,28.70
2017-06-09T15:22:24.592Z,28.70
2017-06-09T15:24:51.387Z,28.80
2017-06-09T15:27:18.017Z,29.10
2017-06-09T15:29:44.986Z,29.50
2017-06-09T15:32:11.669Z,29.70
2017-06-09T15:34:38.198Z,29.50
2017-06-09T15:37:04.635Z,29.90
2017-06-09T15:39:31.794Z,30.00
2017-06-09T15:41:59.350Z,30.60
2017-06-09T15:44:26.218Z,30.60
2017-06-09T15:46:53.714Z,31.10
2017-06-09T15:49:20.515Z,31.10
2017-06-09T15:51:47.036Z,31.20
2017-06-09T15:54:13.631Z,31.30
2017-06-09T15:56:40.095Z,32.00
2017-06-09T15:59:06.780Z,32.30
2017-06-09T16:01:34.004Z,32.70
2017-06-09T16:04:00.479Z,32.60
2017-06-09T16:06:26.907Z,32.80
2017-06-09T16:08:54.447Z,33.70
2017-06-09T16:11:20.979Z,33.90
2017-06-09T16:13:47.821Z,34.10
2017-06-09T16:16:14.535Z,33.90
2017-06-09T16:18:42.827Z,34.10
2017-06-09T16:21:09.300Z,34.40
2017-06-09T16:23:35.921Z,34.70
2017-06-09T16:26:02.393Z,35.10
2017-06-09T16:28:28.867Z,35.20
2017-06-09T16:30:55.302Z,35.80
2017-06-09T16:33:21.723Z,36.20
2017-06-09T16:35:48.206Z,36.00
2017-06-09T16:38:14.638Z,36.00
2017-06-09T16:40:42.026Z,36.30
2017-06-09T16:43:08.506Z,36.30
2017-06-09T16:45:35.039Z,36.50
2017-06-09T16:48:01.707Z,37.20
2017-06-09T16:50:28.362Z,38.00
2017-06-09T16:52:54.833Z,37.90
2017-06-09T16:55:21.612Z,38.30
2017-06-09T16:57:48.123Z,38.70
2017-06-09T17:00:15.347Z,38.90
2017-06-09T17:02:41.812Z,38.90
2017-06-09T17:05:08.428Z,39.40
2017-06-09T17:07:34.889Z,39.80
2017-06-09T17:10:01.578Z,40.80
2017-06-09T17:12:28.350Z,40.50
2017-06-09T17:14:54.890Z,40.70
2017-06-09T17:17:21.345Z,41.00
2017-06-09T17:19:48.120Z,41.30
2017-06-09T17:22:14.728Z,41.50
2017-06-09T17:24:41.246Z,42.00
2017-06-09T17:27:07.758Z,42.30
2017-06-09T17:29:34.199Z,42.80
2017-06-09T17:32:00.688Z,43.30
2017-06-09T17:34:27.149Z,43.90
2017-06-09T17:36:53.690Z,44.30
2017-06-09T17:39:20.248Z,45.00
2017-06-09T17:41:47.357Z,45.50
2017-06-09T17:44:13.833Z,46.00
2017-06-09T17:46:42.479Z,47.20
2017-06-09T17:49:09.035Z,47.10
2017-06-09T17:51:35.508Z,47.90
2017-06-09T17:54:01.975Z,48.50
2017-06-09T17:56:28.505Z,49.10
2017-06-09T17:58:54.990Z,49.90
2017-06-09T18:01:21.444Z,50.60
2017-06-09T18:03:47.917Z,51.20
2017-06-09T18:06:14.339Z,51.60
2017-06-09T18:08:40.769Z,52.00
2017-06-09T18:11:07.956Z,55.10
2017-06-09T18:13:35.376Z,58.20
2017-06-09T18:16:01.892Z,58.20
2017-06-09T18:18:28.861Z,58.70
2017-06-09T18:20:55.296Z,59.60
2017-06-09T18:23:23.408Z,61.60
2017-06-09T18:25:49.849Z,61.60
2017-06-09T18:28:16.432Z,61.50
2017-06-09T18:30:43.203Z,62.10
2017-06-09T18:33:09.745Z,61.40
2017-06-09T18:35:36.400Z,60.90
2017-06-09T18:38:02.915Z,60.00
2017-06-09T18:40:29.438Z,60.70
2017-06-09T18:42:55.940Z,62.50
2017-06-09T18:45:23.492Z,66.00
2017-06-09T18:47:51.142Z,69.10
2017-06-09T18:50:17.699Z,68.60
2017-06-09T18:52:44.494Z,69.50
2017-06-09T18:55:10.975Z,71.20
2017-06-09T18:57:37.479Z,72.30
2017-06-09T19:00:04.035Z,73.00
2017-06-09T19:02:30.515Z,73.20
2017-06-09T19:04:57.308Z,72.60
2017-06-09T19:07:24.631Z,74.10
2017-06-09T19:09:51.097Z,74.10
2017-06-09T19:12:17.555Z,75.10
2017-06-09T19:14:44.255Z,76.30
2017-06-09T19:17:11.580Z,77.50
2017-06-09T19:19:38.138Z,77.40
2017-06-09T19:22:04.900Z,77.00
2017-06-09T19:24:31.954Z,76.70
2017-06-09T19:26:59.412Z,77.80
2017-06-09T19:29:26.135Z,77.70
2017-06-09T19:31:52.644Z,78.00
2017-06-09T19:34:19.719Z,77.30
2017-06-09T19:36:46.269Z,78.00
2017-06-09T19:39:13.542Z,78.10
2017-06-09T19:41:40.812Z,77.90
2017-06-09T19:44:08.037Z,77.90
2017-06-09T19:46:34.786Z,77.70
2017-06-09T19:49:01.405Z,78.90
2017-06-09T19:51:27.869Z,78.60
2017-06-09T19:53:54.353Z,78.50
2017-06-09T19:56:20.921Z,78.80
2017-06-09T19:58:47.376Z,78.30
2017-06-09T20:01:13.844Z,77.10
2017-06-09T20:03:40.385Z,77.20
2017-06-09T20:06:06.861Z,76.70
2017-06-09T20:08:33.396Z,77.70
2017-06-09T20:10:59.835Z,76.50
2017-06-09T20:13:27.128Z,75.50
2017-06-09T20:15:53.595Z,75.50
2017-06-09T20:18:20.084Z,75.90
2017-06-09T20:21:01.420Z,75.60
2017-06-09T20:25:05.033Z,75.60
2017-06-09T20:27:32.228Z,75.80
2017-06-09T20:29:58.682Z,75.60
2017-06-09T20:32:25.121Z,75.50
2017-06-09T20:34:52.384Z,76.40
2017-06-09T20:37:19.546Z,77.30
2017-06-09T20:39:46.713Z,76.20
2017-06-09T20:42:13.173Z,76.80
2017-06-09T20:44:39.786Z,75.80
2017-06-09T20:47:06.421Z,75.80
2017-06-09T20:49:32.910Z,75.70
2017-06-09T20:51:59.991Z,74.10
2017-06-09T20:54:26.505Z,73.20
2017-06-09T20:56:53.063Z,72.40
2017-06-09T20:59:19.503Z,71.80
2017-06-09T21:01:46.679Z,70.20
2017-06-09T21:04:14.519Z,68.60
2017-06-09T21:06:41.013Z,69.20
2017-06-09T21:09:07.466Z,68.20
2017-06-09T21:11:33.948Z,67.50
2017-06-09T21:14:01.180Z,67.00
2017-06-09T21:16:27.604Z,66.70
2017-06-09T21:18:54.092Z,67.30
2017-06-09T21:21:20.533Z,67.60
2017-06-09T21:23:46.964Z,67.80
2017-06-09T21:26:14.064Z,67.30
2017-06-09T21:28:40.573Z,67.60
2017-06-09T21:31:07.257Z,67.90
2017-06-09T21:33:33.742Z,67.30
2017-06-09T21:36:00.186Z,67.70
2017-06-09T21:38:27.113Z,67.90
2017-06-09T21:40:53.672Z,68.00
2017-06-09T21:43:20.734Z,68.00
2017-06-09T21:45:47.173Z,67.80
2017-06-09T21:48:13.758Z,68.20
2017-06-09T21:50:40.563Z,68.60
2017-06-09T21:53:07.080Z,68.80
2017-06-09T21:55:33.543Z,68.90
2017-06-09T21:57:59.986Z,68.80
2017-06-09T22:00:27.214Z,69.10
2017-06-09T22:02:53.730Z,68.90
2017-06-09T22:05:20.164Z,69.50
2017-06-09T22:07:47.333Z,70.50
2017-06-09T22:10:15.164Z,71.00
2017-06-09T22:12:41.620Z,71.00
2017-06-09T22:15:08.698Z,70.50
2017-06-09T22:17:35.454Z,71.20
2017-06-09T22:20:01.989Z,71.50
2017-06-09T22:22:28.430Z,71.90
2017-06-09T22:24:55.962Z,73.60
2017-06-09T22:27:22.389Z,73.50
2017-06-09T22:29:48.815Z,73.90
2017-06-09T22:32:15.996Z,74.90
2017-06-09T22:34:43.145Z,75.00
2017-06-09T22:37:09.591Z,75.00
2017-06-09T22:39:36.022Z,74.60
2017-06-09T22:42:02.435Z,75.50
2017-06-09T22:44:28.895Z,76.80
2017-06-09T22:46:55.339Z,76.80
2017-06-09T22:49:22.516Z,76.90
2017-06-09T22:51:49.687Z,76.60
2017-06-09T22:54:16.872Z,76.20
2017-06-09T22:56:43.300Z,76.20
2017-06-09T22:59:10.484Z,76.60
2017-06-09T23:01:37.648Z,75.30
2017-06-09T23:04:04.804Z,75.20
2017-06-09T23:06:32.002Z,74.70
2017-06-09T23:08:59.197Z,76.20
2017-06-09T23:11:26.151Z,76.20
2017-06-09T23:13:52.588Z,76.60
2017-06-09T23:16:19.753Z,77.50
2017-06-09T23:18:46.234Z,77.50
2017-06-09T23:21:12.792Z,77.90
2017-06-09T23:23:39.281Z,78.30
2017-06-09T23:26:05.794Z,78.90
2017-06-09T23:28:32.267Z,79.70
2017-06-09T23:31:18.731Z,79.70
2017-06-09T23:33:45.425Z,79.60
2017-06-09T23:36:13.699Z,80.50
2017-06-09T23:38:40.903Z,80.90
2017-06-09T23:41:07.456Z,80.20
2017-06-09T23:43:34.011Z,80.10
2017-06-09T23:46:00.478Z,80.50
2017-06-09T23:48:26.889Z,82.30
2017-06-09T23:50:54.096Z,81.90
2017-06-09T23:53:20.673Z,81.70
2017-06-09T23:55:47.108Z,81.50
2017-06-09T23:58:14.299Z,82.30
